Grayhound — 2FMM5 — position and weather

sailwx.info

Track history (hours):
 
Tides and Currents Weather Stations Pressure Air Temp Water Temp Dewpoint Dewpoint Depression Visibility Wind Speed Wind Dir Waves Ship Positions

Grayhound

Last reported at 2019-Jul-21 02:10 UTC. Time now 2019-Jul-22 13:50 UTC.
Position N 37°42' W 025°38'.

Type: Sailing vessel. MMSI: 235092485.

Date/timePositionNaut miles runAvg speedWind from/ knotsBaromVisibWave heightAir tempDewpointWater temp
2019-Jul-21 02:10N 37°42' W 025°38'1 5.0
2019-Jul-21 01:59N 37°41' W 025°38'3 5.3
2019-Jul-21 01:30N 37°39' W 025°38'3 5.4
2019-Jul-21 01:00N 37°36' W 025°37'2 4.0
2019-Jul-21 00:29N 37°34' W 025°36'2 3.2
2019-Jul-21 00:00N 37°32' W 025°36'2 3.6
2019-Jul-20 23:28N 37°31' W 025°35'2 4.2
2019-Jul-20 22:56N 37°29' W 025°34'30 5.3
2019-Jul-20 17:14N 37°00' W 025°21'5 6.5
2019-Jul-20 16:24N 36°55' W 025°18'3 6.5
2019-Jul-20 15:56N 36°52' W 025°17'3 6.4
2019-Jul-20 15:30N 36°50' W 025°16'3 5.4
2019-Jul-20 15:00N 36°47' W 025°15'2 4.4
2019-Jul-20 14:30N 36°45' W 025°14'2 3.4
2019-Jul-20 14:00N 36°44' W 025°13'2 3.6
2019-Jul-20 13:30N 36°42' W 025°12'4 6.5
2019-Jul-20 12:53N 36°38' W 025°10'3 6.2
2019-Jul-20 12:28N 36°36' W 025°09'3 6.2
2019-Jul-20 11:58N 36°33' W 025°07'  
Track history (hours):
 
Tides and Currents Weather Stations Pressure Air Temp Water Temp Dewpoint Dewpoint Depression Visibility Wind Speed Wind Dir Waves Ship Positions

Grayhound

Last reported at 2019-Jul-21 02:10 UTC. Time now 2019-Jul-22 13:50 UTC.
Position N 37°42' W 025°38'.

Type: Sailing vessel. MMSI: 235092485.

Date/timePositionNaut miles runAvg speedWind from/ knotsBaromVisibWave heightAir tempDewpointWater temp
2019-Jul-21 02:10N 37°42' W 025°38'1 5.0
2019-Jul-21 01:59N 37°41' W 025°38'3 5.3
2019-Jul-21 01:30N 37°39' W 025°38'3 5.4
2019-Jul-21 01:00N 37°36' W 025°37'2 4.0
2019-Jul-21 00:29N 37°34' W 025°36'2 3.2
2019-Jul-21 00:00N 37°32' W 025°36'2 3.6
2019-Jul-20 23:28N 37°31' W 025°35'2 4.2
2019-Jul-20 22:56N 37°29' W 025°34'30 5.3
2019-Jul-20 17:14N 37°00' W 025°21'5 6.5
2019-Jul-20 16:24N 36°55' W 025°18'3 6.5
2019-Jul-20 15:56N 36°52' W 025°17'3 6.4
2019-Jul-20 15:30N 36°50' W 025°16'3 5.4
2019-Jul-20 15:00N 36°47' W 025°15'2 4.4
2019-Jul-20 14:30N 36°45' W 025°14'2 3.4
2019-Jul-20 14:00N 36°44' W 025°13'2 3.6
2019-Jul-20 13:30N 36°42' W 025°12'4 6.5
2019-Jul-20 12:53N 36°38' W 025°10'3 6.2
2019-Jul-20 12:28N 36°36' W 025°09'3 6.2
2019-Jul-20 11:58N 36°33' W 025°07'  

Dump ship's entire track history